Time;durP1;ratioP1;P1;durP2;ratioP2;P2;SDS_P1;SDS_P2;PMS_P1;PMS_P2;Temp;Humidity;BMP_temperature;BMP_pressure;BME280_temperature;BME280_humidity;BME280_pressure;Samples;Min_cycle;Max_cycle;Signal;HPM_P1;HPM_P2
2023/06/23 00:02:17;;;;;;;18.08;10.23;;;;;;;;;;5034135;28;19920;-78
2023/06/23 00:04:43;;;;;;;20.45;10.55;;;;;;;;;;5021813;28;20042;-77
2023/06/23 00:07:09;;;;;;;;;;;;;;;;;;5027112;28;20064;-78
2023/06/23 00:09:37;;;;;;;15.48;9.77;;;;;;;;;;5050714;28;19920;-78
2023/06/23 00:12:07;;;;;;;17.90;10.57;;;;;;;;;;5031996;28;20549;-78
2023/06/23 00:14:34;;;;;;;19.42;11.93;;;;;;;;;;5013952;28;20049;-78
2023/06/23 00:17:00;;;;;;;19.70;10.98;;;;;;;;;;5014250;28;20479;-78
2023/06/23 00:19:26;;;;;;;15.77;8.68;;;;;;;;;;5029483;28;20056;-78
2023/06/23 00:21:52;;;;;;;;;;;;;;;;;;5027858;28;20373;-78
2023/06/23 00:24:18;;;;;;;17.60;9.32;;;;;;;;;;5050574;28;20357;-78
2023/06/23 00:26:44;;;;;;;19.35;11.60;;;;;;;;;;5050173;28;20049;-78
2023/06/23 00:29:11;;;;;;;;;;;;;;;;;;5043418;28;20478;-78
2023/06/23 00:31:37;;;;;;;14.15;7.63;;;;;;;;;;5033604;28;20420;-78
2023/06/23 00:34:03;;;;;;;16.98;9.45;;;;;;;;;;5032820;28;20094;-78
2023/06/23 00:36:30;;;;;;;;;;;;;;;;;;5003576;28;20053;-78
2023/06/23 00:38:56;;;;;;;18.52;10.98;;;;;;;;;;5035758;28;19927;-78
2023/06/23 00:41:22;;;;;;;17.27;9.65;;;;;;;;;;5049906;28;20134;-78
2023/06/23 00:43:49;;;;;;;15.95;9.15;;;;;;;;;;5033136;28;20041;-78
2023/06/23 00:46:20;;;;;;;17.98;9.15;;;;;;;;;;5033816;28;20102;-78
2023/06/23 00:48:47;;;;;;;14.05;8.68;;;;;;;;;;5048727;28;20053;-78
2023/06/23 00:51:15;;;;;;;17.10;10.07;;;;;;;;;;5048442;28;20152;-78
2023/06/23 00:53:47;;;;;;;15.52;8.93;;;;;;;;;;5030931;28;20656;-78
2023/06/23 00:56:14;;;;;;;17.63;10.60;;;;;;;;;;5033791;28;20059;-78
2023/06/23 00:58:41;;;;;;;17.63;9.82;;;;;;;;;;5035783;28;20128;-78
2023/06/23 01:01:08;;;;;;;23.52;10.23;;;;;;;;;;5013788;28;20103;-78
2023/06/23 01:03:35;;;;;;;13.88;8.73;;;;;;;;;;5035873;28;20561;-78
2023/06/23 01:06:08;;;;;;;19.58;11.57;;;;;;;;;;5033487;28;20114;-78
2023/06/23 01:08:38;;;;;;;18.80;9.15;;;;;;;;;;5048934;28;20048;-78
2023/06/23 01:11:04;;;;;;;20.17;10.27;;;;;;;;;;5049287;28;20051;-78
2023/06/23 01:13:30;;;;;;;;;;;;;;;;;;5032766;28;20129;-78
2023/06/23 01:16:01;;;;;;;13.50;8.43;;;;;;;;;;5050086;28;20413;-78
2023/06/23 01:18:27;;;;;;;18.27;10.05;;;;;;;;;;5048547;28;20079;-78
2023/06/23 01:20:53;;;;;;;;;;;;;;;;;;5050240;28;20052;-78
2023/06/23 01:23:29;;;;;;;18.98;12.60;;;;;;;;;;5042174;28;19921;-78
2023/06/23 01:26:14;;;;;;;21.30;12.23;;;;;;;;;;5038401;28;20045;-78
2023/06/23 01:28:45;;;;;;;19.08;10.95;;;;;;;;;;5032094;28;20053;-78
2023/06/23 01:31:14;;;;;;;22.13;13.63;;;;;;;;;;5031700;28;20060;-78
2023/06/23 01:33:43;;;;;;;19.88;12.10;;;;;;;;;;5011806;28;20049;-78
2023/06/23 01:36:16;;;;;;;24.13;12.82;;;;;;;;;;5029842;28;20398;-78
2023/06/23 01:38:48;;;;;;;18.38;11.13;;;;;;;;;;5022874;28;20051;-78
2023/06/23 01:41:16;;;;;;;27.60;13.10;;;;;;;;;;5049688;28;20095;-78
2023/06/23 01:43:45;;;;;;;23.98;14.05;;;;;;;;;;5048249;28;20041;-78
2023/06/23 01:46:16;;;;;;;22.30;13.32;;;;;;;;;;5049369;28;20061;-78
2023/06/23 01:48:45;;;;;;;19.90;11.32;;;;;;;;;;5022818;28;20785;-78
2023/06/23 01:51:11;;;;;;;17.02;10.63;;;;;;;;;;5018120;28;20049;-78
2023/06/23 01:53:38;;;;;;;21.55;12.63;;;;;;;;;;5048034;28;20045;-78
2023/06/23 01:56:05;;;;;;;21.90;12.65;;;;;;;;;;5049326;28;20084;-78
2023/06/23 01:58:32;;;;;;;19.88;12.02;;;;;;;;;;5032027;28;20452;-78
2023/06/23 02:00:59;;;;;;;23.52;12.05;;;;;;;;;;5049214;28;20098;-78
2023/06/23 02:03:27;;;;;;;23.80;11.85;;;;;;;;;;5031687;28;20580;-78
2023/06/23 02:05:54;;;;;;;22.92;11.63;;;;;;;;;;5032675;28;20083;-78
2023/06/23 02:08:21;;;;;;;16.88;10.77;;;;;;;;;;5048462;28;20497;-78
2023/06/23 02:10:47;;;;;;;19.38;11.32;;;;;;;;;;5031071;28;20056;-78
2023/06/23 02:13:15;;;;;;;21.95;10.77;;;;;;;;;;4996252;28;20049;-78
2023/06/23 02:15:42;;;;;;;20.90;11.32;;;;;;;;;;5036089;28;20141;-78
2023/06/23 02:18:10;;;;;;;17.85;11.20;;;;;;;;;;5048309;28;20045;-78
2023/06/23 02:20:36;;;;;;;20.27;10.15;;;;;;;;;;5036734;28;20053;-78
2023/06/23 02:23:02;;;;;;;22.00;10.38;;;;;;;;;;5030727;28;20052;-78
2023/06/23 02:25:29;;;;;;;19.65;9.80;;;;;;;;;;5016172;28;20560;-78
2023/06/23 02:27:56;;;;;;;17.98;9.90;;;;;;;;;;5036604;28;20045;-78
2023/06/23 02:30:22;;;;;;;18.77;9.48;;;;;;;;;;5036395;28;20118;-78
2023/06/23 02:32:48;;;;;;;17.60;10.13;;;;;;;;;;5034957;28;20446;-78
2023/06/23 02:35:14;;;;;;;;;;;;;;;;;;5017522;28;20447;-78
2023/06/23 02:37:42;;;;;;;17.13;9.82;;;;;;;;;;5035621;28;19925;-78
2023/06/23 02:40:11;;;;;;;18.63;11.10;;;;;;;;;;5038239;28;20080;-78
2023/06/23 02:42:40;;;;;;;20.30;10.55;;;;;;;;;;5051772;28;20104;-78
2023/06/23 02:45:09;;;;;;;22.23;10.55;;;;;;;;;;5052091;28;20041;-77
2023/06/23 02:47:36;;;;;;;20.50;11.38;;;;;;;;;;5031120;28;20048;-78
2023/06/23 02:50:04;;;;;;;19.30;11.35;;;;;;;;;;5032364;28;20054;-78
2023/06/23 02:52:35;;;;;;;20.55;11.48;;;;;;;;;;5015195;28;20453;-79
2023/06/23 02:55:03;;;;;;;23.92;11.40;;;;;;;;;;5032663;28;20050;-78
2023/06/23 02:57:30;;;;;;;20.27;11.95;;;;;;;;;;5022468;28;20052;-78
2023/06/23 02:59:59;;;;;;;27.30;13.05;;;;;;;;;;5052332;28;20041;-78
2023/06/23 03:02:25;;;;;;;20.38;11.77;;;;;;;;;;5051821;28;20474;-78
2023/06/23 03:04:51;;;;;;;23.83;12.07;;;;;;;;;;5048336;28;20045;-78
2023/06/23 03:07:17;;;;;;;;;;;;;;;;;;5047664;28;20045;-78
2023/06/23 03:09:44;;;;;;;22.05;11.38;;;;;;;;;;5031510;28;19932;-78
2023/06/23 03:12:10;;;;;;;24.23;13.00;;;;;;;;;;5015515;28;20057;-78
2023/06/23 03:14:37;;;;;;;21.00;11.70;;;;;;;;;;5018141;28;20044;-78
2023/06/23 03:17:23;;;;;;;19.58;11.05;;;;;;;;;;5035284;28;20141;-78
2023/06/23 03:19:55;;;;;;;22.00;11.63;;;;;;;;;;5050642;28;20080;-79
2023/06/23 03:22:27;;;;;;;23.60;11.43;;;;;;;;;;5034703;28;20098;-78
2023/06/23 03:24:54;;;;;;;18.60;10.80;;;;;;;;;;5034871;28;20127;-78
2023/06/23 03:27:22;;;;;;;19.63;11.05;;;;;;;;;;5051572;28;20056;-78
2023/06/23 03:29:52;;;;;;;18.08;11.13;;;;;;;;;;5034593;28;20076;-78
2023/06/23 03:32:25;;;;;;;22.33;10.57;;;;;;;;;;5035040;28;20052;-78
2023/06/23 03:34:58;;;;;;;20.25;10.88;;;;;;;;;;5045244;28;20044;-78
2023/06/23 03:37:27;;;;;;;24.02;9.43;;;;;;;;;;5041399;28;20050;-78
2023/06/23 03:39:55;;;;;;;18.33;9.90;;;;;;;;;;5026355;28;20054;-78
2023/06/23 03:42:21;;;;;;;19.20;10.52;;;;;;;;;;5051246;28;20096;-78
2023/06/23 03:44:49;;;;;;;16.27;10.02;;;;;;;;;;5034097;28;20049;-78
2023/06/23 03:47:25;;;;;;;20.75;10.68;;;;;;;;;;5034839;28;20052;-78
2023/06/23 03:49:53;;;;;;;20.60;11.02;;;;;;;;;;5040732;28;20195;-78
2023/06/23 03:52:20;;;;;;;18.88;10.48;;;;;;;;;;5014487;28;20049;-78
2023/06/23 03:54:48;;;;;;;18.90;10.00;;;;;;;;;;5014214;28;20570;-78
2023/06/23 03:57:17;;;;;;;15.68;10.35;;;;;;;;;;5031509;28;20495;-78
2023/06/23 03:59:44;;;;;;;17.23;9.75;;;;;;;;;;5050573;28;20127;-78
2023/06/23 04:02:11;;;;;;;20.05;10.80;;;;;;;;;;5050487;28;20041;-78
2023/06/23 04:04:39;;;;;;;19.50;9.90;;;;;;;;;;5024701;28;20063;-78
2023/06/23 04:07:06;;;;;;;17.88;9.93;;;;;;;;;;5030405;28;20411;-78
2023/06/23 04:09:33;;;;;;;17.67;9.50;;;;;;;;;;5030865;28;20045;-78
2023/06/23 04:12:00;;;;;;;18.50;10.57;;;;;;;;;;5048332;28;20045;-78
2023/06/23 04:14:27;;;;;;;22.15;10.50;;;;;;;;;;5014142;28;20041;-78
2023/06/23 04:16:54;;;;;;;19.42;10.35;;;;;;;;;;5013940;28;20563;-78
2023/06/23 04:19:22;;;;;;;19.25;9.93;;;;;;;;;;5030084;28;20064;-78
2023/06/23 04:21:48;;;;;;;18.73;9.88;;;;;;;;;;5029996;28;20141;-78
2023/06/23 04:24:15;;;;;;;18.13;10.23;;;;;;;;;;5043902;28;20524;-78
2023/06/23 04:26:43;;;;;;;17.35;9.10;;;;;;;;;;5050326;28;20049;-78
2023/06/23 04:29:11;;;;;;;21.17;10.45;;;;;;;;;;5033875;28;20052;-78
2023/06/23 04:31:38;;;;;;;18.88;10.00;;;;;;;;;;5048309;28;20401;-78
2023/06/23 04:34:04;;;;;;;19.00;10.85;;;;;;;;;;5041364;28;20047;-78
2023/06/23 04:36:32;;;;;;;21.13;11.80;;;;;;;;;;5014338;28;20055;-78
2023/06/23 04:39:04;;;;;;;19.25;10.95;;;;;;;;;;5029395;28;20137;-78
2023/06/23 04:41:31;;;;;;;21.95;10.88;;;;;;;;;;5030679;28;20421;-78
2023/06/23 04:44:00;;;;;;;20.55;10.82;;;;;;;;;;5013181;28;20045;-78
2023/06/23 04:46:28;;;;;;;19.38;10.93;;;;;;;;;;5029674;28;20128;-78
2023/06/23 04:48:56;;;;;;;18.02;11.05;;;;;;;;;;5016737;28;20061;-78
2023/06/23 04:51:24;;;;;;;19.85;11.65;;;;;;;;;;5030469;28;20159;-78
2023/06/23 04:53:53;;;;;;;20.17;10.50;;;;;;;;;;5032357;28;20132;-78
2023/06/23 04:56:21;;;;;;;19.38;11.38;;;;;;;;;;5050273;28;20049;-78
2023/06/23 04:58:50;;;;;;;22.27;11.10;;;;;;;;;;5039286;28;20087;-78
2023/06/23 05:01:17;;;;;;;20.20;10.68;;;;;;;;;;5030206;28;20048;-78
2023/06/23 05:03:45;;;;;;;18.02;10.32;;;;;;;;;;5032871;28;20044;-78
2023/06/23 05:06:12;;;;;;;16.45;9.98;;;;;;;;;;5049908;28;20395;-78
2023/06/23 05:08:39;;;;;;;22.30;11.15;;;;;;;;;;5045901;28;20045;-78
2023/06/23 05:11:06;;;;;;;20.17;11.38;;;;;;;;;;5039871;28;20044;-78
2023/06/23 05:13:32;;;;;;;19.02;10.65;;;;;;;;;;5049260;28;20395;-78
2023/06/23 05:15:59;;;;;;;18.52;10.57;;;;;;;;;;5049307;28;20102;-78
2023/06/23 05:18:26;;;;;;;22.48;11.43;;;;;;;;;;5015638;28;20099;-78
2023/06/23 05:20:52;;;;;;;19.67;10.48;;;;;;;;;;5013202;28;20049;-78
2023/06/23 05:23:19;;;;;;;19.20;10.55;;;;;;;;;;5029315;28;20388;-78
2023/06/23 05:25:46;;;;;;;17.23;10.35;;;;;;;;;;5013351;28;20056;-78
2023/06/23 05:28:13;;;;;;;22.13;10.55;;;;;;;;;;5013107;28;20049;-78
2023/06/23 05:30:40;;;;;;;25.58;12.10;;;;;;;;;;5013398;28;20045;-78
2023/06/23 05:33:07;;;;;;;17.17;10.23;;;;;;;;;;5028164;28;20188;-78
2023/06/23 05:35:33;;;;;;;20.05;10.00;;;;;;;;;;5016908;28;20056;-78
2023/06/23 05:38:01;;;;;;;18.65;10.18;;;;;;;;;;5013866;28;20072;-78
2023/06/23 05:40:27;;;;;;;20.27;10.60;;;;;;;;;;5023819;28;20056;-78
2023/06/23 05:42:53;;;;;;;;;;;;;;;;;;5028475;28;20053;-78
2023/06/23 05:45:19;;;;;;;18.85;10.45;;;;;;;;;;5032708;28;19924;-78
2023/06/23 05:47:48;;;;;;;21.20;10.93;;;;;;;;;;5031687;28;20110;-78
2023/06/23 05:50:20;;;;;;;22.38;11.23;;;;;;;;;;5049240;28;20115;-78
2023/06/23 05:52:51;;;;;;;18.10;10.45;;;;;;;;;;5041164;28;20060;-78
2023/06/23 05:55:19;;;;;;;23.45;10.38;;;;;;;;;;5029457;28;20053;-78
2023/06/23 05:57:47;;;;;;;19.65;10.50;;;;;;;;;;5030463;28;20087;-78
2023/06/23 06:00:14;;;;;;;17.17;9.70;;;;;;;;;;5033258;28;20057;-78
2023/06/23 06:02:44;;;;;;;18.25;10.07;;;;;;;;;;5018286;28;20053;-78
2023/06/23 06:05:12;;;;;;;19.75;10.65;;;;;;;;;;5045878;28;20057;-78
2023/06/23 06:07:38;;;;;;;17.52;10.23;;;;;;;;;;5046320;28;20083;-78
2023/06/23 06:10:05;;;;;;;22.85;10.65;;;;;;;;;;5019886;28;20059;-78
2023/06/23 06:12:34;;;;;;;20.35;11.10;;;;;;;;;;5036008;28;20049;-78
2023/06/23 06:15:01;;;;;;;17.90;10.65;;;;;;;;;;5035718;28;20053;-78
2023/06/23 06:17:27;;;;;;;17.48;10.65;;;;;;;;;;5034134;28;20445;-78
2023/06/23 06:19:55;;;;;;;20.00;10.85;;;;;;;;;;5032201;28;20049;-78
2023/06/23 06:22:21;;;;;;;22.00;10.93;;;;;;;;;;5016134;28;20052;-79
2023/06/23 06:24:47;;;;;;;19.75;11.38;;;;;;;;;;5016875;28;20045;-78
2023/06/23 06:27:15;;;;;;;19.17;10.57;;;;;;;;;;5017359;28;20095;-78
2023/06/23 06:29:41;;;;;;;19.13;11.00;;;;;;;;;;5032839;28;20061;-78
2023/06/23 06:32:08;;;;;;;20.60;11.20;;;;;;;;;;5021147;28;20049;-78
2023/06/23 06:34:34;;;;;;;19.48;10.98;;;;;;;;;;5035172;28;20132;-78
2023/06/23 06:37:01;;;;;;;18.35;11.40;;;;;;;;;;5030851;28;20056;-78
2023/06/23 06:39:30;;;;;;;19.17;10.85;;;;;;;;;;5032712;28;20061;-78
2023/06/23 06:41:57;;;;;;;21.73;11.15;;;;;;;;;;5032035;28;20053;-78
2023/06/23 06:44:24;;;;;;;19.73;11.73;;;;;;;;;;5032509;28;20057;-78
2023/06/23 06:46:52;;;;;;;20.15;11.77;;;;;;;;;;4999911;28;20056;-78
2023/06/23 06:49:21;;;;;;;17.60;11.48;;;;;;;;;;5019665;28;20211;-78
2023/06/23 06:51:49;;;;;;;21.80;11.07;;;;;;;;;;5050876;28;20071;-78
2023/06/23 06:54:16;;;;;;;21.13;11.40;;;;;;;;;;5050727;28;20049;-78
2023/06/23 06:56:43;;;;;;;20.77;11.48;;;;;;;;;;5000661;28;20050;-78
2023/06/23 06:59:09;;;;;;;20.23;11.27;;;;;;;;;;5033317;28;20042;-78
2023/06/23 07:01:36;;;;;;;19.52;11.98;;;;;;;;;;5015971;28;20050;-78
2023/06/23 07:04:02;;;;;;;20.67;10.55;;;;;;;;;;5014623;28;20092;-78
2023/06/23 07:06:28;;;;;;;18.92;11.35;;;;;;;;;;5042129;28;20469;-77
2023/06/23 07:08:54;;;;;;;;;;;;;;;;;;5033971;28;20053;-78
2023/06/23 07:11:20;;;;;;;21.90;10.65;;;;;;;;;;5035534;28;19921;-78
2023/06/23 07:13:46;;;;;;;;;;;;;;;;;;5035520;28;20095;-78
2023/06/23 07:16:12;;;;;;;17.98;9.20;;;;;;;;;;5034795;28;19920;-78
2023/06/23 07:18:38;;;;;;;;;;;;;;;;;;5034916;28;20053;-78
2023/06/23 07:21:04;;;;;;;17.80;9.32;;;;;;;;;;5051120;28;20425;-77
2023/06/23 07:23:31;;;;;;;16.45;8.60;;;;;;;;;;5048791;28;20059;-78
2023/06/23 07:25:57;;;;;;;19.90;8.95;;;;;;;;;;5033013;28;20050;-78
2023/06/23 07:28:24;;;;;;;14.65;8.75;;;;;;;;;;5051598;28;20067;-78
2023/06/23 07:30:50;;;;;;;16.13;9.32;;;;;;;;;;5028245;28;20174;-78
2023/06/23 07:33:16;;;;;;;;;;;;;;;;;;5014672;28;20049;-77
2023/06/23 07:35:43;;;;;;;15.40;8.50;;;;;;;;;;5031687;28;20011;-78
2023/06/23 07:38:09;;;;;;;12.82;8.35;;;;;;;;;;5014265;28;20058;-78
2023/06/23 07:40:35;;;;;;;;;;;;;;;;;;5015729;28;20049;-78
2023/06/23 07:43:01;;;;;;;15.93;7.97;;;;;;;;;;5036591;28;20376;-78
2023/06/23 07:45:27;;;;;;;;;;;;;;;;;;5047791;28;20052;-77
2023/06/23 07:47:53;;;;;;;14.18;7.40;;;;;;;;;;5050425;28;19924;-77
2023/06/23 07:50:19;;;;;;;;;;;;;;;;;;5051140;28;20186;-77
2023/06/23 07:52:45;;;;;;;11.10;5.63;;;;;;;;;;5050786;28;20015;-77
2023/06/23 07:55:18;;;;;;;11.05;5.32;;;;;;;;;;5031202;28;20057;-77
2023/06/23 07:57:44;;;;;;;12.98;6.03;;;;;;;;;;5031256;28;20057;-77
2023/06/23 08:00:10;;;;;;;;;;;;;;;;;;5031345;28;20041;-77
2023/06/23 08:02:36;;;;;;;13.20;7.15;;;;;;;;;;5030439;28;19921;-77
2023/06/23 08:05:03;;;;;;;;;;;;;;;;;;5020434;28;20501;-78
2023/06/23 08:07:29;;;;;;;9.68;5.35;;;;;;;;;;5049274;28;19931;-77
2023/06/23 08:09:55;;;;;;;;;;;;;;;;;;5030728;28;20053;-77
2023/06/23 08:12:21;;;;;;;14.70;7.20;;;;;;;;;;5030175;28;19971;-77
2023/06/23 08:14:47;;;;;;;;;;;;;;;;;;5030978;28;20080;-77
2023/06/23 08:17:13;;;;;;;14.90;7.20;;;;;;;;;;5030579;28;19925;-78
2023/06/23 08:19:41;;;;;;;;;;;;;;;;;;5045403;28;20052;-77
2023/06/23 08:22:07;;;;;;;13.30;6.15;;;;;;;;;;5049472;28;19921;-77
2023/06/23 08:24:34;;;;;;;11.77;6.63;;;;;;;;;;5050618;28;20061;-77
2023/06/23 08:27:01;;;;;;;11.68;6.25;;;;;;;;;;5034036;28;20049;-78
2023/06/23 08:29:27;;;;;;;13.38;6.55;;;;;;;;;;5033961;28;20048;-77
2023/06/23 08:31:53;;;;;;;12.25;5.47;;;;;;;;;;5017704;28;20052;-77
2023/06/23 08:34:19;;;;;;;;;;;;;;;;;;5029767;28;20124;-77
2023/06/23 08:36:45;;;;;;;9.98;5.88;;;;;;;;;;5034408;28;20025;-77
2023/06/23 08:39:11;;;;;;;12.02;6.60;;;;;;;;;;5013195;28;20048;-77
2023/06/23 08:41:37;;;;;;;;;;;;;;;;;;5028003;28;20056;-77
2023/06/23 08:44:03;;;;;;;12.93;5.35;;;;;;;;;;5030067;28;19925;-77
2023/06/23 08:46:33;;;;;;;10.35;5.40;;;;;;;;;;5013990;28;20089;-77
2023/06/23 08:49:05;;;;;;;12.10;5.15;;;;;;;;;;5012732;28;20065;-77
2023/06/23 08:51:32;;;;;;;10.85;5.18;;;;;;;;;;5034570;28;20052;-77
2023/06/23 08:53:58;;;;;;;10.68;4.60;;;;;;;;;;5049406;28;20409;-78
2023/06/23 08:56:25;;;;;;;11.48;6.22;;;;;;;;;;5049554;28;20135;-77
2023/06/23 08:58:51;;;;;;;9.23;6.10;;;;;;;;;;5036099;28;20048;-78
2023/06/23 09:01:17;;;;;;;10.05;6.10;;;;;;;;;;5069174;28;20102;-78
2023/06/23 09:03:43;;;;;;;;;;;;;;;;;;5052692;28;20044;-77
2023/06/23 09:06:09;;;;;;;10.30;4.90;;;;;;;;;;5060239;28;20376;-77
2023/06/23 09:08:36;;;;;;;9.32;5.35;;;;;;;;;;5032769;28;20195;-77
2023/06/23 09:11:02;;;;;;;10.05;5.47;;;;;;;;;;5022027;28;20049;-78
2023/06/23 09:13:30;;;;;;;9.40;5.05;;;;;;;;;;5031678;28;20123;-78
2023/06/23 09:15:56;;;;;;;8.88;4.13;;;;;;;;;;5033256;28;20051;-77
2023/06/23 09:18:23;;;;;;;8.05;4.90;;;;;;;;;;5017352;28;20052;-78
2023/06/23 09:20:50;;;;;;;10.35;4.72;;;;;;;;;;5030032;28;20041;-78
2023/06/23 09:23:17;;;;;;;9.23;3.78;;;;;;;;;;5028563;28;20139;-77
2023/06/23 09:25:44;;;;;;;10.05;3.90;;;;;;;;;;5045364;28;20060;-78
2023/06/23 09:28:21;;;;;;;7.72;4.30;;;;;;;;;;5029075;28;20398;-78
2023/06/23 09:30:47;;;;;;;6.90;3.90;;;;;;;;;;5028971;28;20143;-78
2023/06/23 09:33:13;;;;;;;6.30;4.05;;;;;;;;;;5044927;28;20060;-78
2023/06/23 09:35:49;;;;;;;6.55;4.03;;;;;;;;;;4996700;28;20105;-78
2023/06/23 09:38:17;;;;;;;8.43;4.25;;;;;;;;;;5028890;28;20057;-78
2023/06/23 09:40:43;;;;;;;6.55;4.00;;;;;;;;;;5032251;28;20044;-78
2023/06/23 09:43:09;;;;;;;8.13;4.00;;;;;;;;;;5016044;28;20132;-78
2023/06/23 09:45:35;;;;;;;8.02;3.20;;;;;;;;;;5028015;28;20045;-78
2023/06/23 09:48:01;;;;;;;6.85;3.70;;;;;;;;;;5021606;28;20048;-78
2023/06/23 09:50:27;;;;;;;5.63;3.60;;;;;;;;;;5031940;28;20159;-78
2023/06/23 09:53:01;;;;;;;6.20;3.78;;;;;;;;;;5013762;28;20048;-77
2023/06/23 09:55:30;;;;;;;4.45;3.10;;;;;;;;;;5029016;28;20049;-78
2023/06/23 09:57:56;;;;;;;6.70;4.00;;;;;;;;;;5029415;28;20064;-78
2023/06/23 10:00:29;;;;;;;8.30;3.58;;;;;;;;;;5015512;28;20110;-78
2023/06/23 10:02:58;;;;;;;6.10;3.53;;;;;;;;;;5031948;28;20045;-78
2023/06/23 10:05:24;;;;;;;5.97;3.58;;;;;;;;;;5048585;28;20064;-78
2023/06/23 10:08:04;;;;;;;5.25;3.35;;;;;;;;;;5032229;28;20059;-77
2023/06/23 10:10:31;;;;;;;5.38;3.25;;;;;;;;;;5030161;28;20059;-77
2023/06/23 10:12:57;;;;;;;6.00;3.53;;;;;;;;;;5032079;28;20132;-78
2023/06/23 10:15:23;;;;;;;5.95;3.30;;;;;;;;;;5042606;28;20081;-77
2023/06/23 10:17:49;;;;;;;5.82;3.75;;;;;;;;;;5011406;28;20057;-78
2023/06/23 10:20:16;;;;;;;6.88;3.25;;;;;;;;;;5012678;28;20445;-78
2023/06/23 10:22:42;;;;;;;5.65;3.45;;;;;;;;;;5028291;28;20103;-78
2023/06/23 10:25:10;;;;;;;5.15;3.08;;;;;;;;;;5012803;28;20046;-78
2023/06/23 10:27:37;;;;;;;6.50;3.92;;;;;;;;;;5011638;28;20052;-77
2023/06/23 10:30:03;;;;;;;6.95;3.65;;;;;;;;;;5029096;28;20495;-77
2023/06/23 10:32:30;;;;;;;10.00;4.22;;;;;;;;;;5034455;28;20099;-77
2023/06/23 10:34:59;;;;;;;6.72;3.60;;;;;;;;;;5032504;28;20097;-77
2023/06/23 10:37:26;;;;;;;5.75;3.20;;;;;;;;;;5027830;28;20053;-77
2023/06/23 10:39:56;;;;;;;8.38;4.30;;;;;;;;;;5032939;28;20441;-77
2023/06/23 10:42:24;;;;;;;6.32;4.10;;;;;;;;;;5048298;28;20045;-78
2023/06/23 10:44:50;;;;;;;6.63;3.90;;;;;;;;;;5035026;28;20052;-77
2023/06/23 10:47:19;;;;;;;6.10;3.58;;;;;;;;;;5052613;28;20441;-78
2023/06/23 10:49:46;;;;;;;8.23;3.72;;;;;;;;;;5034793;28;20088;-77
2023/06/23 10:52:13;;;;;;;6.38;3.63;;;;;;;;;;5014840;28;20053;-77
2023/06/23 10:54:39;;;;;;;7.22;4.00;;;;;;;;;;5030442;28;20649;-77
2023/06/23 10:57:09;;;;;;;8.30;4.03;;;;;;;;;;5032007;28;20101;-77
2023/06/23 10:59:36;;;;;;;6.00;3.50;;;;;;;;;;5015456;28;20103;-78
2023/06/23 11:02:03;;;;;;;7.85;4.20;;;;;;;;;;5034356;28;20046;-77
2023/06/23 11:04:30;;;;;;;7.90;4.00;;;;;;;;;;5051090;28;20071;-77
2023/06/23 11:07:02;;;;;;;6.75;3.95;;;;;;;;;;5051266;28;20052;-77
2023/06/23 11:10:06;;;;;;;7.20;3.65;;;;;;;;;;5040760;28;20441;-77
2023/06/23 11:12:39;;;;;;;5.82;3.35;;;;;;;;;;5033490;28;20049;-77
2023/06/23 11:15:20;;;;;;;6.45;3.35;;;;;;;;;;5025403;28;20084;-77
2023/06/23 11:17:47;;;;;;;6.43;3.78;;;;;;;;;;5050975;28;20053;-77
2023/06/23 11:20:25;;;;;;;8.02;3.90;;;;;;;;;;5038212;28;20055;-77
2023/06/23 11:22:54;;;;;;;5.82;3.42;;;;;;;;;;5014811;28;20136;-77
2023/06/23 11:25:30;;;;;;;6.70;3.13;;;;;;;;;;5031938;28;20498;-77
2023/06/23 11:28:15;;;;;;;5.15;2.90;;;;;;;;;;5021108;28;20049;-77
2023/06/23 11:31:00;;;;;;;6.28;2.78;;;;;;;;;;5034760;28;20064;-77
2023/06/23 11:33:26;;;;;;;6.50;3.15;;;;;;;;;;5029523;28;20494;-77
2023/06/23 11:35:53;;;;;;;5.03;2.97;;;;;;;;;;5033271;28;20098;-77
2023/06/23 11:38:19;;;;;;;6.93;3.20;;;;;;;;;;5031092;28;20088;-77
2023/06/23 11:40:48;;;;;;;4.90;3.03;;;;;;;;;;5014473;28;20475;-77
2023/06/23 11:43:18;;;;;;;6.18;3.33;;;;;;;;;;5031281;28;20426;-77
2023/06/23 11:45:51;;;;;;;7.05;3.40;;;;;;;;;;5042594;28;20064;-78
2023/06/23 11:48:17;;;;;;;7.28;3.80;;;;;;;;;;5050463;28;20048;-78
2023/06/23 11:50:44;;;;;;;6.53;3.60;;;;;;;;;;5050342;28;20768;-78
2023/06/23 11:53:10;;;;;;;7.50;3.80;;;;;;;;;;5033172;28;20037;-78
2023/06/23 11:55:36;;;;;;;5.32;3.00;;;;;;;;;;5025523;28;20103;-78
2023/06/23 11:58:03;;;;;;;8.50;2.97;;;;;;;;;;5007878;28;20095;-78
2023/06/23 12:00:30;;;;;;;5.13;2.70;;;;;;;;;;5034246;28;20057;-78
2023/06/23 12:02:58;;;;;;;6.70;3.42;;;;;;;;;;5024407;28;20053;-78
2023/06/23 12:05:24;;;;;;;5.07;3.10;;;;;;;;;;5014374;28;20058;-78
2023/06/23 12:07:51;;;;;;;5.68;3.05;;;;;;;;;;5026198;28;20048;-78
2023/06/23 12:10:17;;;;;;;6.07;2.83;;;;;;;;;;5018108;28;20048;-78
2023/06/23 12:12:45;;;;;;;5.13;2.72;;;;;;;;;;5047563;28;20049;-78
2023/06/23 12:15:11;;;;;;;7.55;2.72;;;;;;;;;;5048377;28;20603;-78
2023/06/23 12:17:44;;;;;;;6.07;2.50;;;;;;;;;;5046096;28;20052;-78
2023/06/23 12:20:10;;;;;;;5.00;2.50;;;;;;;;;;5042617;28;20053;-78
2023/06/23 12:22:37;;;;;;;4.63;2.65;;;;;;;;;;5013590;28;20049;-78
2023/06/23 12:25:04;;;;;;;3.92;2.50;;;;;;;;;;5014027;28;20106;-78
2023/06/23 12:27:33;;;;;;;3.72;2.50;;;;;;;;;;5041965;28;20045;-79
2023/06/23 12:30:18;;;;;;;5.05;2.50;;;;;;;;;;5050426;28;20189;-78
2023/06/23 12:32:44;;;;;;;5.15;2.55;;;;;;;;;;5049030;28;20055;-79
2023/06/23 12:35:11;;;;;;;5.00;2.72;;;;;;;;;;5047421;28;20049;-78
2023/06/23 12:37:47;;;;;;;5.57;2.33;;;;;;;;;;5009639;28;20053;-79
2023/06/23 12:40:29;;;;;;;4.55;2.67;;;;;;;;;;5030793;28;20045;-79
2023/06/23 12:42:57;;;;;;;5.88;2.40;;;;;;;;;;5013277;28;20045;-79
2023/06/23 12:45:24;;;;;;;3.97;2.45;;;;;;;;;;5030343;28;20053;-78
2023/06/23 12:47:54;;;;;;;3.83;2.22;;;;;;;;;;5029070;28;20045;-78
2023/06/23 12:50:31;;;;;;;5.13;2.47;;;;;;;;;;5035277;28;20494;-79
2023/06/23 12:52:58;;;;;;;5.45;2.65;;;;;;;;;;5031075;28;20494;-78
2023/06/23 12:55:24;;;;;;;4.28;2.40;;;;;;;;;;5013297;28;20072;-78
2023/06/23 12:57:50;;;;;;;4.55;2.47;;;;;;;;;;5029559;28;20053;-78
2023/06/23 13:00:21;;;;;;;3.85;2.10;;;;;;;;;;5025784;28;20060;-78
2023/06/23 13:02:49;;;;;;;3.03;2.00;;;;;;;;;;5038114;28;20053;-78
2023/06/23 13:05:15;;;;;;;4.35;2.38;;;;;;;;;;5050172;28;20106;-78
2023/06/23 13:07:42;;;;;;;2.80;2.20;;;;;;;;;;5047772;28;20467;-78
2023/06/23 13:10:09;;;;;;;4.45;2.20;;;;;;;;;;5013623;28;20107;-78
2023/06/23 13:12:35;;;;;;;3.35;2.40;;;;;;;;;;5033385;28;20057;-78
2023/06/23 13:15:03;;;;;;;4.50;2.47;;;;;;;;;;5033100;28;20080;-78
2023/06/23 13:17:29;;;;;;;4.40;2.63;;;;;;;;;;5048752;28;20045;-78
2023/06/23 13:19:55;;;;;;;7.10;2.70;;;;;;;;;;5049508;28;20099;-78
2023/06/23 13:22:21;;;;;;;4.80;2.53;;;;;;;;;;5046693;28;20045;-78
2023/06/23 13:24:47;;;;;;;7.03;2.40;;;;;;;;;;5021158;28;20049;-78
2023/06/23 13:27:14;;;;;;;5.05;2.50;;;;;;;;;;5049742;28;20048;-78
2023/06/23 13:29:41;;;;;;;4.28;2.50;;;;;;;;;;5024851;28;20120;-78
2023/06/23 13:32:08;;;;;;;5.40;3.05;;;;;;;;;;5029812;28;20045;-78
2023/06/23 13:34:35;;;;;;;5.55;2.78;;;;;;;;;;5039123;28;20049;-78
2023/06/23 13:37:02;;;;;;;10.48;3.30;;;;;;;;;;5049023;28;20052;-78
2023/06/23 13:39:28;;;;;;;6.47;2.95;;;;;;;;;;5032487;28;20049;-78
2023/06/23 13:41:55;;;;;;;6.03;2.50;;;;;;;;;;5046218;28;20549;-78
2023/06/23 13:44:21;;;;;;;5.78;2.90;;;;;;;;;;5015750;28;20049;-78
2023/06/23 13:46:48;;;;;;;6.32;2.80;;;;;;;;;;5032292;28;20060;-78
2023/06/23 13:49:14;;;;;;;5.82;3.13;;;;;;;;;;5032793;28;20489;-78
2023/06/23 13:51:41;;;;;;;5.13;2.85;;;;;;;;;;5011956;28;20076;-78
2023/06/23 13:54:07;;;;;;;4.97;2.70;;;;;;;;;;5012478;28;20474;-78
2023/06/23 13:56:33;;;;;;;5.57;2.78;;;;;;;;;;5035943;28;20041;-78
2023/06/23 13:58:59;;;;;;;5.10;2.80;;;;;;;;;;5048953;28;20087;-78
2023/06/23 14:01:25;;;;;;;5.50;2.60;;;;;;;;;;5032300;28;20049;-78
2023/06/23 14:03:52;;;;;;;4.75;2.20;;;;;;;;;;5031105;28;20045;-78
2023/06/23 14:06:18;;;;;;;3.80;2.70;;;;;;;;;;5047441;28;20041;-78
2023/06/23 14:08:45;;;;;;;5.95;2.70;;;;;;;;;;5024678;28;20061;-78
2023/06/23 14:11:11;;;;;;;5.07;2.90;;;;;;;;;;5047825;28;20053;-78
2023/06/23 14:13:37;;;;;;;4.88;2.70;;;;;;;;;;5034966;28;20046;-78
2023/06/23 14:16:03;;;;;;;5.38;2.70;;;;;;;;;;5029438;28;20073;-78
2023/06/23 14:18:29;;;;;;;5.40;2.50;;;;;;;;;;5028241;28;20402;-78
2023/06/23 14:20:55;;;;;;;4.80;2.35;;;;;;;;;;5052393;28;20052;-78
2023/06/23 14:23:21;;;;;;;5.22;3.00;;;;;;;;;;5035977;28;20126;-78
2023/06/23 14:25:48;;;;;;;8.23;3.22;;;;;;;;;;5035436;28;20398;-78
2023/06/23 14:28:14;;;;;;;5.13;2.80;;;;;;;;;;5023659;28;20407;-78
2023/06/23 14:30:41;;;;;;;6.47;2.60;;;;;;;;;;5040163;28;20503;-78
2023/06/23 14:33:07;;;;;;;6.10;2.80;;;;;;;;;;5052016;28;20136;-78
2023/06/23 14:35:33;;;;;;;5.70;2.33;;;;;;;;;;5035823;28;20521;-78
2023/06/23 14:38:05;;;;;;;4.43;2.65;;;;;;;;;;5036722;28;20041;-78
2023/06/23 14:40:31;;;;;;;5.53;2.90;;;;;;;;;;5026078;28;20124;-78
2023/06/23 14:42:57;;;;;;;7.22;3.35;;;;;;;;;;5018776;28;20053;-78